sensor_id;sensor_type;location;lat;lon;timestamp;P1;durP1;ratioP1;P2;durP2;ratioP2
60610;SDS011;46439;51.164;13.572;2022-08-30T00:01:21;7.80;;;4.90;;
60610;SDS011;46439;51.164;13.572;2022-08-30T00:03:52;13.00;;;5.10;;
60610;SDS011;46439;51.164;13.572;2022-08-30T00:06:21;10.20;;;4.60;;
60610;SDS011;46439;51.164;13.572;2022-08-30T00:08:51;10.00;;;5.20;;
60610;SDS011;46439;51.164;13.572;2022-08-30T00:11:21;8.70;;;5.20;;
60610;SDS011;46439;51.164;13.572;2022-08-30T00:13:51;8.40;;;5.50;;
60610;SDS011;46439;51.164;13.572;2022-08-30T00:16:21;7.50;;;4.90;;
60610;SDS011;46439;51.164;13.572;2022-08-30T00:18:53;11.10;;;5.40;;
60610;SDS011;46439;51.164;13.572;2022-08-30T00:21:23;12.20;;;5.40;;
60610;SDS011;46439;51.164;13.572;2022-08-30T00:23:52;8.50;;;4.90;;
60610;SDS011;46439;51.164;13.572;2022-08-30T00:26:21;8.70;;;4.90;;
60610;SDS011;46439;51.164;13.572;2022-08-30T00:28:49;12.40;;;5.70;;
60610;SDS011;46439;51.164;13.572;2022-08-30T00:31:18;11.00;;;5.30;;
60610;SDS011;46439;51.164;13.572;2022-08-30T00:33:46;8.30;;;5.20;;
60610;SDS011;46439;51.164;13.572;2022-08-30T00:36:15;10.00;;;5.40;;
60610;SDS011;46439;51.164;13.572;2022-08-30T00:38:43;9.30;;;5.10;;
60610;SDS011;46439;51.164;13.572;2022-08-30T00:41:12;10.00;;;5.00;;
60610;SDS011;46439;51.164;13.572;2022-08-30T00:43:40;9.30;;;5.10;;
60610;SDS011;46439;51.164;13.572;2022-08-30T00:46:09;8.40;;;5.00;;
60610;SDS011;46439;51.164;13.572;2022-08-30T00:48:38;7.70;;;4.80;;
60610;SDS011;46439;51.164;13.572;2022-08-30T00:51:09;8.20;;;4.90;;
60610;SDS011;46439;51.164;13.572;2022-08-30T00:53:41;8.60;;;5.20;;
60610;SDS011;46439;51.164;13.572;2022-08-30T00:56:12;10.20;;;5.10;;
60610;SDS011;46439;51.164;13.572;2022-08-30T00:58:46;9.30;;;5.40;;
60610;SDS011;46439;51.164;13.572;2022-08-30T01:01:17;8.20;;;5.00;;
60610;SDS011;46439;51.164;13.572;2022-08-30T01:03:46;13.60;;;5.00;;
60610;SDS011;46439;51.164;13.572;2022-08-30T01:06:15;11.10;;;5.10;;
60610;SDS011;46439;51.164;13.572;2022-08-30T01:08:44;8.90;;;5.20;;
60610;SDS011;46439;51.164;13.572;2022-08-30T01:11:14;10.30;;;5.90;;
60610;SDS011;46439;51.164;13.572;2022-08-30T01:13:46;11.10;;;5.60;;
60610;SDS011;46439;51.164;13.572;2022-08-30T01:16:17;7.50;;;4.90;;
60610;SDS011;46439;51.164;13.572;2022-08-30T01:18:46;8.40;;;5.30;;
60610;SDS011;46439;51.164;13.572;2022-08-30T01:21:18;8.30;;;5.40;;
60610;SDS011;46439;51.164;13.572;2022-08-30T01:23:53;8.50;;;5.40;;
60610;SDS011;46439;51.164;13.572;2022-08-30T01:26:24;7.50;;;5.40;;
60610;SDS011;46439;51.164;13.572;2022-08-30T01:28:56;7.30;;;4.90;;
60610;SDS011;46439;51.164;13.572;2022-08-30T01:31:27;12.70;;;4.90;;
60610;SDS011;46439;51.164;13.572;2022-08-30T01:33:56;11.00;;;5.20;;
60610;SDS011;46439;51.164;13.572;2022-08-30T01:36:26;9.30;;;5.30;;
60610;SDS011;46439;51.164;13.572;2022-08-30T01:38:55;9.90;;;5.20;;
60610;SDS011;46439;51.164;13.572;2022-08-30T01:41:25;10.80;;;5.40;;
60610;SDS011;46439;51.164;13.572;2022-08-30T01:43:56;10.60;;;5.80;;
60610;SDS011;46439;51.164;13.572;2022-08-30T01:48:56;13.90;;;5.30;;
60610;SDS011;46439;51.164;13.572;2022-08-30T01:51:25;9.20;;;5.00;;
60610;SDS011;46439;51.164;13.572;2022-08-30T01:53:55;11.70;;;5.50;;
60610;SDS011;46439;51.164;13.572;2022-08-30T01:56:24;9.00;;;4.90;;
60610;SDS011;46439;51.164;13.572;2022-08-30T01:58:54;9.20;;;5.20;;
60610;SDS011;46439;51.164;13.572;2022-08-30T02:01:24;8.70;;;4.70;;
60610;SDS011;46439;51.164;13.572;2022-08-30T02:03:55;8.10;;;4.90;;
60610;SDS011;46439;51.164;13.572;2022-08-30T02:06:23;7.90;;;4.80;;
60610;SDS011;46439;51.164;13.572;2022-08-30T02:08:52;12.40;;;5.70;;
60610;SDS011;46439;51.164;13.572;2022-08-30T02:11:20;6.90;;;4.70;;
60610;SDS011;46439;51.164;13.572;2022-08-30T02:13:49;9.80;;;4.80;;
60610;SDS011;46439;51.164;13.572;2022-08-30T02:16:18;9.40;;;5.10;;
60610;SDS011;46439;51.164;13.572;2022-08-30T02:18:50;8.80;;;5.00;;
60610;SDS011;46439;51.164;13.572;2022-08-30T02:21:20;8.70;;;4.80;;
60610;SDS011;46439;51.164;13.572;2022-08-30T02:23:48;7.60;;;5.00;;
60610;SDS011;46439;51.164;13.572;2022-08-30T02:26:17;8.20;;;4.80;;
60610;SDS011;46439;51.164;13.572;2022-08-30T02:28:46;9.20;;;4.90;;
60610;SDS011;46439;51.164;13.572;2022-08-30T02:31:15;7.50;;;4.70;;
60610;SDS011;46439;51.164;13.572;2022-08-30T02:33:45;9.30;;;5.00;;
60610;SDS011;46439;51.164;13.572;2022-08-30T02:36:14;9.90;;;4.90;;
60610;SDS011;46439;51.164;13.572;2022-08-30T02:38:43;7.60;;;4.80;;
60610;SDS011;46439;51.164;13.572;2022-08-30T02:41:12;8.40;;;5.00;;
60610;SDS011;46439;51.164;13.572;2022-08-30T02:43:40;8.90;;;5.10;;
60610;SDS011;46439;51.164;13.572;2022-08-30T02:46:09;10.70;;;5.30;;
60610;SDS011;46439;51.164;13.572;2022-08-30T02:48:37;8.90;;;4.90;;
60610;SDS011;46439;51.164;13.572;2022-08-30T02:51:06;8.60;;;4.80;;
60610;SDS011;46439;51.164;13.572;2022-08-30T02:53:36;10.40;;;5.50;;
60610;SDS011;46439;51.164;13.572;2022-08-30T02:56:06;10.70;;;4.80;;
60610;SDS011;46439;51.164;13.572;2022-08-30T02:58:35;7.30;;;4.30;;
60610;SDS011;46439;51.164;13.572;2022-08-30T03:01:04;7.50;;;5.00;;
60610;SDS011;46439;51.164;13.572;2022-08-30T03:03:33;8.70;;;4.60;;
60610;SDS011;46439;51.164;13.572;2022-08-30T03:06:04;7.90;;;4.80;;
60610;SDS011;46439;51.164;13.572;2022-08-30T03:08:33;7.60;;;4.60;;
60610;SDS011;46439;51.164;13.572;2022-08-30T03:11:02;7.40;;;4.90;;
60610;SDS011;46439;51.164;13.572;2022-08-30T03:13:30;8.50;;;4.70;;
60610;SDS011;46439;51.164;13.572;2022-08-30T03:15:59;8.30;;;5.10;;
60610;SDS011;46439;51.164;13.572;2022-08-30T03:18:27;13.00;;;6.20;;
60610;SDS011;46439;51.164;13.572;2022-08-30T03:20:56;9.00;;;4.90;;
60610;SDS011;46439;51.164;13.572;2022-08-30T03:23:24;8.70;;;4.70;;
60610;SDS011;46439;51.164;13.572;2022-08-30T03:25:52;8.00;;;4.80;;
60610;SDS011;46439;51.164;13.572;2022-08-30T03:28:22;8.10;;;5.10;;
60610;SDS011;46439;51.164;13.572;2022-08-30T03:30:51;10.00;;;4.60;;
60610;SDS011;46439;51.164;13.572;2022-08-30T03:33:20;6.70;;;4.30;;
60610;SDS011;46439;51.164;13.572;2022-08-30T03:35:48;8.30;;;4.40;;
60610;SDS011;46439;51.164;13.572;2022-08-30T03:38:16;8.30;;;4.70;;
60610;SDS011;46439;51.164;13.572;2022-08-30T03:40:45;10.30;;;4.60;;
60610;SDS011;46439;51.164;13.572;2022-08-30T03:43:13;10.70;;;4.50;;
60610;SDS011;46439;51.164;13.572;2022-08-30T03:45:42;7.20;;;4.30;;
60610;SDS011;46439;51.164;13.572;2022-08-30T03:48:13;8.00;;;4.80;;
60610;SDS011;46439;51.164;13.572;2022-08-30T03:50:41;8.30;;;4.50;;
60610;SDS011;46439;51.164;13.572;2022-08-30T03:53:09;9.70;;;4.70;;
60610;SDS011;46439;51.164;13.572;2022-08-30T03:55:41;8.40;;;4.30;;
60610;SDS011;46439;51.164;13.572;2022-08-30T03:58:09;8.00;;;4.80;;
60610;SDS011;46439;51.164;13.572;2022-08-30T04:00:38;9.10;;;4.60;;
60610;SDS011;46439;51.164;13.572;2022-08-30T04:03:06;8.80;;;4.30;;
60610;SDS011;46439;51.164;13.572;2022-08-30T04:05:34;8.00;;;4.60;;
60610;SDS011;46439;51.164;13.572;2022-08-30T04:08:03;8.60;;;4.90;;
60610;SDS011;46439;51.164;13.572;2022-08-30T04:10:32;10.20;;;4.90;;
60610;SDS011;46439;51.164;13.572;2022-08-30T04:13:00;9.30;;;4.60;;
60610;SDS011;46439;51.164;13.572;2022-08-30T04:15:29;8.50;;;4.50;;
60610;SDS011;46439;51.164;13.572;2022-08-30T04:17:57;10.50;;;4.50;;
60610;SDS011;46439;51.164;13.572;2022-08-30T04:20:25;8.50;;;4.60;;
60610;SDS011;46439;51.164;13.572;2022-08-30T04:22:54;9.40;;;4.10;;
60610;SDS011;46439;51.164;13.572;2022-08-30T04:25:23;7.20;;;4.60;;
60610;SDS011;46439;51.164;13.572;2022-08-30T04:27:51;7.40;;;4.50;;
60610;SDS011;46439;51.164;13.572;2022-08-30T04:30:21;11.70;;;4.40;;
60610;SDS011;46439;51.164;13.572;2022-08-30T04:32:49;7.60;;;4.40;;
60610;SDS011;46439;51.164;13.572;2022-08-30T04:35:21;8.20;;;4.50;;
60610;SDS011;46439;51.164;13.572;2022-08-30T04:40:16;8.20;;;4.80;;
60610;SDS011;46439;51.164;13.572;2022-08-30T04:42:45;7.10;;;4.30;;
60610;SDS011;46439;51.164;13.572;2022-08-30T04:45:14;6.70;;;3.90;;
60610;SDS011;46439;51.164;13.572;2022-08-30T04:47:43;8.60;;;4.10;;
60610;SDS011;46439;51.164;13.572;2022-08-30T04:50:13;8.60;;;4.20;;
60610;SDS011;46439;51.164;13.572;2022-08-30T04:52:43;8.70;;;4.10;;
60610;SDS011;46439;51.164;13.572;2022-08-30T04:55:12;7.80;;;4.40;;
60610;SDS011;46439;51.164;13.572;2022-08-30T04:57:41;7.20;;;4.40;;
60610;SDS011;46439;51.164;13.572;2022-08-30T05:00:11;8.00;;;4.20;;
60610;SDS011;46439;51.164;13.572;2022-08-30T05:02:40;9.60;;;4.10;;
60610;SDS011;46439;51.164;13.572;2022-08-30T05:05:09;7.10;;;4.00;;
60610;SDS011;46439;51.164;13.572;2022-08-30T05:07:57;6.60;;;4.50;;
60610;SDS011;46439;51.164;13.572;2022-08-30T05:10:25;9.90;;;4.40;;
60610;SDS011;46439;51.164;13.572;2022-08-30T05:12:55;7.40;;;4.30;;
60610;SDS011;46439;51.164;13.572;2022-08-30T05:15:23;6.50;;;4.30;;
60610;SDS011;46439;51.164;13.572;2022-08-30T05:17:51;8.80;;;4.70;;
60610;SDS011;46439;51.164;13.572;2022-08-30T05:20:23;8.70;;;4.50;;
60610;SDS011;46439;51.164;13.572;2022-08-30T05:22:51;6.70;;;4.50;;
60610;SDS011;46439;51.164;13.572;2022-08-30T05:25:20;10.50;;;4.10;;
60610;SDS011;46439;51.164;13.572;2022-08-30T05:27:50;7.10;;;4.30;;
60610;SDS011;46439;51.164;13.572;2022-08-30T05:30:20;9.70;;;4.70;;
60610;SDS011;46439;51.164;13.572;2022-08-30T05:32:50;6.30;;;4.20;;
60610;SDS011;46439;51.164;13.572;2022-08-30T05:35:19;9.20;;;4.60;;
60610;SDS011;46439;51.164;13.572;2022-08-30T05:37:48;9.00;;;4.60;;
60610;SDS011;46439;51.164;13.572;2022-08-30T05:40:17;8.00;;;4.60;;
60610;SDS011;46439;51.164;13.572;2022-08-30T05:42:46;7.70;;;5.10;;
60610;SDS011;46439;51.164;13.572;2022-08-30T05:45:14;8.70;;;5.00;;
60610;SDS011;46439;51.164;13.572;2022-08-30T05:47:44;8.30;;;5.10;;
60610;SDS011;46439;51.164;13.572;2022-08-30T05:50:13;9.50;;;4.90;;
60610;SDS011;46439;51.164;13.572;2022-08-30T05:52:42;11.20;;;4.40;;
60610;SDS011;46439;51.164;13.572;2022-08-30T05:55:11;9.00;;;5.10;;
60610;SDS011;46439;51.164;13.572;2022-08-30T05:57:40;7.60;;;5.00;;
60610;SDS011;46439;51.164;13.572;2022-08-30T06:00:10;8.70;;;4.60;;
60610;SDS011;46439;51.164;13.572;2022-08-30T06:02:43;9.90;;;5.20;;
60610;SDS011;46439;51.164;13.572;2022-08-30T06:05:11;10.70;;;5.00;;
60610;SDS011;46439;51.164;13.572;2022-08-30T06:07:40;9.50;;;4.80;;
60610;SDS011;46439;51.164;13.572;2022-08-30T06:10:09;9.50;;;4.70;;
60610;SDS011;46439;51.164;13.572;2022-08-30T06:12:37;10.60;;;5.20;;
60610;SDS011;46439;51.164;13.572;2022-08-30T06:15:07;9.90;;;5.70;;
60610;SDS011;46439;51.164;13.572;2022-08-30T06:17:36;9.50;;;5.10;;
60610;SDS011;46439;51.164;13.572;2022-08-30T06:20:06;13.60;;;5.10;;
60610;SDS011;46439;51.164;13.572;2022-08-30T06:22:36;15.50;;;5.30;;
60610;SDS011;46439;51.164;13.572;2022-08-30T06:25:05;11.40;;;5.90;;
60610;SDS011;46439;51.164;13.572;2022-08-30T06:27:34;11.00;;;6.10;;
60610;SDS011;46439;51.164;13.572;2022-08-30T06:30:04;15.30;;;6.10;;
60610;SDS011;46439;51.164;13.572;2022-08-30T06:32:36;10.00;;;5.70;;
60610;SDS011;46439;51.164;13.572;2022-08-30T06:35:09;12.50;;;5.20;;
60610;SDS011;46439;51.164;13.572;2022-08-30T06:37:38;11.50;;;5.70;;
60610;SDS011;46439;51.164;13.572;2022-08-30T06:40:10;11.40;;;5.70;;
60610;SDS011;46439;51.164;13.572;2022-08-30T06:42:39;11.70;;;5.60;;
60610;SDS011;46439;51.164;13.572;2022-08-30T06:45:10;9.50;;;5.90;;
60610;SDS011;46439;51.164;13.572;2022-08-30T06:47:39;11.20;;;5.70;;
60610;SDS011;46439;51.164;13.572;2022-08-30T06:50:09;10.10;;;5.20;;
60610;SDS011;46439;51.164;13.572;2022-08-30T06:52:41;11.50;;;5.40;;
60610;SDS011;46439;51.164;13.572;2022-08-30T06:55:11;12.90;;;5.80;;
60610;SDS011;46439;51.164;13.572;2022-08-30T06:57:41;11.80;;;6.20;;
60610;SDS011;46439;51.164;13.572;2022-08-30T07:00:16;15.30;;;6.00;;
60610;SDS011;46439;51.164;13.572;2022-08-30T07:02:45;7.40;;;4.90;;
60610;SDS011;46439;51.164;13.572;2022-08-30T07:05:13;12.50;;;5.50;;
60610;SDS011;46439;51.164;13.572;2022-08-30T07:07:43;13.40;;;5.40;;
60610;SDS011;46439;51.164;13.572;2022-08-30T07:10:12;10.00;;;5.50;;
60610;SDS011;46439;51.164;13.572;2022-08-30T07:12:42;11.50;;;5.70;;
60610;SDS011;46439;51.164;13.572;2022-08-30T07:15:11;13.60;;;5.60;;
60610;SDS011;46439;51.164;13.572;2022-08-30T07:17:39;9.30;;;5.10;;
60610;SDS011;46439;51.164;13.572;2022-08-30T07:20:26;10.40;;;5.20;;
60610;SDS011;46439;51.164;13.572;2022-08-30T07:22:55;11.40;;;5.20;;
60610;SDS011;46439;51.164;13.572;2022-08-30T07:25:23;10.90;;;5.50;;
60610;SDS011;46439;51.164;13.572;2022-08-30T07:27:52;10.80;;;5.50;;
60610;SDS011;46439;51.164;13.572;2022-08-30T07:30:22;9.80;;;5.30;;
60610;SDS011;46439;51.164;13.572;2022-08-30T07:32:51;13.20;;;5.40;;
60610;SDS011;46439;51.164;13.572;2022-08-30T07:35:19;9.30;;;4.90;;
60610;SDS011;46439;51.164;13.572;2022-08-30T07:37:48;10.20;;;4.90;;
60610;SDS011;46439;51.164;13.572;2022-08-30T07:40:16;12.90;;;5.50;;
60610;SDS011;46439;51.164;13.572;2022-08-30T07:42:45;10.00;;;5.80;;
60610;SDS011;46439;51.164;13.572;2022-08-30T07:45:16;11.30;;;5.50;;
60610;SDS011;46439;51.164;13.572;2022-08-30T07:47:44;9.20;;;5.60;;
60610;SDS011;46439;51.164;13.572;2022-08-30T07:50:13;13.60;;;5.60;;
60610;SDS011;46439;51.164;13.572;2022-08-30T07:52:41;9.60;;;5.20;;
60610;SDS011;46439;51.164;13.572;2022-08-30T07:55:10;10.30;;;4.90;;
60610;SDS011;46439;51.164;13.572;2022-08-30T07:57:38;9.90;;;5.40;;
60610;SDS011;46439;51.164;13.572;2022-08-30T08:00:07;9.70;;;4.70;;
60610;SDS011;46439;51.164;13.572;2022-08-30T08:02:37;11.30;;;4.80;;
60610;SDS011;46439;51.164;13.572;2022-08-30T08:05:07;11.20;;;5.30;;
60610;SDS011;46439;51.164;13.572;2022-08-30T08:07:36;10.80;;;5.30;;
60610;SDS011;46439;51.164;13.572;2022-08-30T08:10:05;16.50;;;5.60;;
60610;SDS011;46439;51.164;13.572;2022-08-30T08:12:34;10.10;;;5.30;;
60610;SDS011;46439;51.164;13.572;2022-08-30T08:15:04;9.30;;;5.00;;
60610;SDS011;46439;51.164;13.572;2022-08-30T08:17:34;13.40;;;5.10;;
60610;SDS011;46439;51.164;13.572;2022-08-30T08:20:03;10.40;;;5.30;;
60610;SDS011;46439;51.164;13.572;2022-08-30T08:22:32;12.00;;;5.40;;
60610;SDS011;46439;51.164;13.572;2022-08-30T08:25:01;8.10;;;4.50;;
60610;SDS011;46439;51.164;13.572;2022-08-30T08:27:30;9.70;;;4.70;;
60610;SDS011;46439;51.164;13.572;2022-08-30T08:29:58;7.10;;;4.40;;
60610;SDS011;46439;51.164;13.572;2022-08-30T08:32:27;9.00;;;4.60;;
60610;SDS011;46439;51.164;13.572;2022-08-30T08:34:55;9.10;;;4.60;;
60610;SDS011;46439;51.164;13.572;2022-08-30T08:37:23;9.90;;;4.80;;
60610;SDS011;46439;51.164;13.572;2022-08-30T08:39:54;9.50;;;5.10;;
60610;SDS011;46439;51.164;13.572;2022-08-30T08:42:24;9.20;;;5.00;;
60610;SDS011;46439;51.164;13.572;2022-08-30T08:45:03;12.40;;;5.30;;
60610;SDS011;46439;51.164;13.572;2022-08-30T08:47:37;8.20;;;4.80;;
60610;SDS011;46439;51.164;13.572;2022-08-30T08:50:11;14.10;;;5.10;;
60610;SDS011;46439;51.164;13.572;2022-08-30T08:52:46;8.60;;;4.80;;
60610;SDS011;46439;51.164;13.572;2022-08-30T08:55:38;12.40;;;5.90;;
60610;SDS011;46439;51.164;13.572;2022-08-30T08:58:12;12.10;;;6.10;;
60610;SDS011;46439;51.164;13.572;2022-08-30T09:00:46;12.70;;;5.50;;
60610;SDS011;46439;51.164;13.572;2022-08-30T09:03:16;9.20;;;5.30;;
60610;SDS011;46439;51.164;13.572;2022-08-30T09:05:48;8.20;;;4.80;;
60610;SDS011;46439;51.164;13.572;2022-08-30T09:08:17;11.20;;;5.60;;
60610;SDS011;46439;51.164;13.572;2022-08-30T09:13:18;9.90;;;4.40;;
60610;SDS011;46439;51.164;13.572;2022-08-30T09:15:47;6.10;;;4.00;;
60610;SDS011;46439;51.164;13.572;2022-08-30T09:18:16;7.90;;;4.20;;
60610;SDS011;46439;51.164;13.572;2022-08-30T09:20:45;7.30;;;4.00;;
60610;SDS011;46439;51.164;13.572;2022-08-30T09:23:23;7.20;;;3.80;;
60610;SDS011;46439;51.164;13.572;2022-08-30T09:25:55;7.30;;;4.40;;
60610;SDS011;46439;51.164;13.572;2022-08-30T09:28:26;9.30;;;4.00;;
60610;SDS011;46439;51.164;13.572;2022-08-30T09:31:04;6.40;;;3.90;;
60610;SDS011;46439;51.164;13.572;2022-08-30T09:33:37;7.80;;;4.10;;
60610;SDS011;46439;51.164;13.572;2022-08-30T09:36:12;7.10;;;4.20;;
60610;SDS011;46439;51.164;13.572;2022-08-30T09:38:46;5.30;;;3.30;;
60610;SDS011;46439;51.164;13.572;2022-08-30T09:41:27;6.40;;;3.70;;
60610;SDS011;46439;51.164;13.572;2022-08-30T09:44:09;7.40;;;3.50;;
60610;SDS011;46439;51.164;13.572;2022-08-30T09:46:48;7.60;;;3.70;;
60610;SDS011;46439;51.164;13.572;2022-08-30T09:52:15;8.20;;;3.70;;
60610;SDS011;46439;51.164;13.572;2022-08-30T09:54:57;7.70;;;3.60;;
60610;SDS011;46439;51.164;13.572;2022-08-30T09:57:36;7.90;;;3.50;;
60610;SDS011;46439;51.164;13.572;2022-08-30T10:00:13;8.20;;;3.70;;
60610;SDS011;46439;51.164;13.572;2022-08-30T10:05:43;4.70;;;3.50;;
60610;SDS011;46439;51.164;13.572;2022-08-30T10:08:28;6.00;;;3.50;;
60610;SDS011;46439;51.164;13.572;2022-08-30T10:11:07;6.70;;;3.50;;
60610;SDS011;46439;51.164;13.572;2022-08-30T10:13:48;6.70;;;4.10;;
60610;SDS011;46439;51.164;13.572;2022-08-30T10:16:34;5.80;;;3.30;;
60610;SDS011;46439;51.164;13.572;2022-08-30T10:19:19;6.90;;;3.30;;
60610;SDS011;46439;51.164;13.572;2022-08-30T10:24:28;6.80;;;3.40;;
60610;SDS011;46439;51.164;13.572;2022-08-30T10:27:03;6.00;;;3.40;;
60610;SDS011;46439;51.164;13.572;2022-08-30T10:29:38;6.50;;;3.20;;
60610;SDS011;46439;51.164;13.572;2022-08-30T10:32:13;9.60;;;3.20;;
60610;SDS011;46439;51.164;13.572;2022-08-30T10:34:47;4.40;;;2.50;;
60610;SDS011;46439;51.164;13.572;2022-08-30T10:37:19;5.90;;;3.00;;
60610;SDS011;46439;51.164;13.572;2022-08-30T10:39:50;4.90;;;3.00;;
60610;SDS011;46439;51.164;13.572;2022-08-30T10:42:21;5.60;;;3.20;;
60610;SDS011;46439;51.164;13.572;2022-08-30T10:44:54;5.40;;;3.10;;
60610;SDS011;46439;51.164;13.572;2022-08-30T10:47:29;6.40;;;3.30;;
60610;SDS011;46439;51.164;13.572;2022-08-30T10:50:08;4.20;;;2.60;;
60610;SDS011;46439;51.164;13.572;2022-08-30T10:52:40;7.30;;;2.80;;
60610;SDS011;46439;51.164;13.572;2022-08-30T10:55:15;3.70;;;2.70;;
60610;SDS011;46439;51.164;13.572;2022-08-30T10:57:50;4.60;;;2.90;;
60610;SDS011;46439;51.164;13.572;2022-08-30T11:00:23;7.30;;;3.30;;
60610;SDS011;46439;51.164;13.572;2022-08-30T11:03:13;4.80;;;2.70;;
60610;SDS011;46439;51.164;13.572;2022-08-30T11:06:04;5.80;;;3.30;;
60610;SDS011;46439;51.164;13.572;2022-08-30T11:08:48;7.60;;;3.50;;
60610;SDS011;46439;51.164;13.572;2022-08-30T11:11:34;4.20;;;3.00;;
60610;SDS011;46439;51.164;13.572;2022-08-30T11:14:17;5.00;;;2.80;;
60610;SDS011;46439;51.164;13.572;2022-08-30T11:16:50;6.00;;;2.80;;
60610;SDS011;46439;51.164;13.572;2022-08-30T11:21:50;5.30;;;2.90;;
60610;SDS011;46439;51.164;13.572;2022-08-30T11:24:36;5.90;;;3.20;;
60610;SDS011;46439;51.164;13.572;2022-08-30T11:27:42;8.20;;;3.80;;
60610;SDS011;46439;51.164;13.572;2022-08-30T11:33:28;5.00;;;2.70;;
60610;SDS011;46439;51.164;13.572;2022-08-30T11:36:07;4.90;;;2.70;;
60610;SDS011;46439;51.164;13.572;2022-08-30T11:41:32;4.30;;;2.60;;
60610;SDS011;46439;51.164;13.572;2022-08-30T11:44:14;6.40;;;3.10;;
60610;SDS011;46439;51.164;13.572;2022-08-30T11:46:55;5.80;;;3.30;;
60610;SDS011;46439;51.164;13.572;2022-08-30T11:49:39;5.20;;;3.60;;
60610;SDS011;46439;51.164;13.572;2022-08-30T11:52:20;6.10;;;3.30;;
60610;SDS011;46439;51.164;13.572;2022-08-30T11:55:02;6.00;;;3.80;;
60610;SDS011;46439;51.164;13.572;2022-08-30T11:57:46;5.40;;;3.50;;
60610;SDS011;46439;51.164;13.572;2022-08-30T12:00:29;5.50;;;3.60;;
60610;SDS011;46439;51.164;13.572;2022-08-30T12:05:52;7.50;;;3.20;;
60610;SDS011;46439;51.164;13.572;2022-08-30T12:17:46;6.40;;;3.30;;
60610;SDS011;46439;51.164;13.572;2022-08-30T12:20:40;3.90;;;3.20;;
60610;SDS011;46439;51.164;13.572;2022-08-30T12:23:14;3.90;;;3.30;;
60610;SDS011;46439;51.164;13.572;2022-08-30T12:25:46;5.50;;;3.10;;
60610;SDS011;46439;51.164;13.572;2022-08-30T12:28:19;6.60;;;3.40;;
60610;SDS011;46439;51.164;13.572;2022-08-30T12:30:53;6.80;;;3.30;;
60610;SDS011;46439;51.164;13.572;2022-08-30T12:33:33;5.30;;;3.40;;
60610;SDS011;46439;51.164;13.572;2022-08-30T12:36:12;4.70;;;3.20;;
60610;SDS011;46439;51.164;13.572;2022-08-30T12:39:04;7.30;;;3.30;;
60610;SDS011;46439;51.164;13.572;2022-08-30T12:41:34;4.40;;;3.20;;
60610;SDS011;46439;51.164;13.572;2022-08-30T12:44:03;3.90;;;3.00;;
60610;SDS011;46439;51.164;13.572;2022-08-30T12:46:39;4.80;;;3.20;;
60610;SDS011;46439;51.164;13.572;2022-08-30T12:49:09;5.90;;;3.30;;
60610;SDS011;46439;51.164;13.572;2022-08-30T12:51:40;6.30;;;3.20;;
60610;SDS011;46439;51.164;13.572;2022-08-30T12:54:13;4.00;;;3.00;;
60610;SDS011;46439;51.164;13.572;2022-08-30T12:56:49;3.70;;;2.80;;
60610;SDS011;46439;51.164;13.572;2022-08-30T13:02:25;5.20;;;3.10;;
60610;SDS011;46439;51.164;13.572;2022-08-30T13:10:48;4.40;;;3.20;;
60610;SDS011;46439;51.164;13.572;2022-08-30T13:13:28;3.30;;;2.70;;
60610;SDS011;46439;51.164;13.572;2022-08-30T13:16:19;5.80;;;3.00;;
60610;SDS011;46439;51.164;13.572;2022-08-30T13:18:51;5.50;;;3.00;;
60610;SDS011;46439;51.164;13.572;2022-08-30T13:21:23;5.00;;;3.20;;
60610;SDS011;46439;51.164;13.572;2022-08-30T13:23:56;4.20;;;2.90;;
60610;SDS011;46439;51.164;13.572;2022-08-30T13:26:26;5.20;;;3.00;;
60610;SDS011;46439;51.164;13.572;2022-08-30T13:28:57;2.70;;;2.40;;
60610;SDS011;46439;51.164;13.572;2022-08-30T13:31:28;3.60;;;2.70;;
60610;SDS011;46439;51.164;13.572;2022-08-30T13:33:57;5.50;;;3.00;;
60610;SDS011;46439;51.164;13.572;2022-08-30T13:36:28;6.10;;;3.10;;
60610;SDS011;46439;51.164;13.572;2022-08-30T13:38:59;5.50;;;2.80;;
60610;SDS011;46439;51.164;13.572;2022-08-30T13:41:28;3.70;;;2.60;;
60610;SDS011;46439;51.164;13.572;2022-08-30T13:43:56;3.80;;;2.80;;
60610;SDS011;46439;51.164;13.572;2022-08-30T13:46:25;4.10;;;2.70;;
60610;SDS011;46439;51.164;13.572;2022-08-30T13:48:56;3.60;;;2.80;;
60610;SDS011;46439;51.164;13.572;2022-08-30T13:51:28;4.10;;;2.50;;
60610;SDS011;46439;51.164;13.572;2022-08-30T13:53:57;5.30;;;2.80;;
60610;SDS011;46439;51.164;13.572;2022-08-30T13:56:26;5.30;;;3.00;;
60610;SDS011;46439;51.164;13.572;2022-08-30T13:58:57;5.00;;;2.80;;
60610;SDS011;46439;51.164;13.572;2022-08-30T14:01:27;4.70;;;2.70;;
60610;SDS011;46439;51.164;13.572;2022-08-30T14:03:56;3.10;;;2.70;;
60610;SDS011;46439;51.164;13.572;2022-08-30T14:06:25;4.40;;;3.00;;
60610;SDS011;46439;51.164;13.572;2022-08-30T14:08:53;4.70;;;2.70;;
60610;SDS011;46439;51.164;13.572;2022-08-30T14:11:21;6.60;;;2.60;;
60610;SDS011;46439;51.164;13.572;2022-08-30T14:13:50;6.10;;;2.90;;
60610;SDS011;46439;51.164;13.572;2022-08-30T14:16:19;6.40;;;3.30;;
60610;SDS011;46439;51.164;13.572;2022-08-30T14:18:50;8.80;;;4.00;;
60610;SDS011;46439;51.164;13.572;2022-08-30T14:21:20;6.00;;;3.00;;
60610;SDS011;46439;51.164;13.572;2022-08-30T14:23:51;3.80;;;2.80;;
60610;SDS011;46439;51.164;13.572;2022-08-30T14:26:21;4.60;;;2.60;;
60610;SDS011;46439;51.164;13.572;2022-08-30T14:28:54;3.80;;;2.50;;
60610;SDS011;46439;51.164;13.572;2022-08-30T14:31:22;4.70;;;2.60;;
60610;SDS011;46439;51.164;13.572;2022-08-30T14:33:51;3.70;;;2.60;;
60610;SDS011;46439;51.164;13.572;2022-08-30T14:36:19;3.60;;;2.90;;
60610;SDS011;46439;51.164;13.572;2022-08-30T14:38:48;5.10;;;2.60;;
60610;SDS011;46439;51.164;13.572;2022-08-30T14:41:16;3.10;;;2.40;;
60610;SDS011;46439;51.164;13.572;2022-08-30T14:43:44;5.50;;;2.70;;
60610;SDS011;46439;51.164;13.572;2022-08-30T14:46:13;3.30;;;2.50;;
60610;SDS011;46439;51.164;13.572;2022-08-30T14:48:41;3.00;;;2.60;;
60610;SDS011;46439;51.164;13.572;2022-08-30T14:51:13;3.40;;;2.40;;
60610;SDS011;46439;51.164;13.572;2022-08-30T14:53:45;2.80;;;2.50;;
60610;SDS011;46439;51.164;13.572;2022-08-30T14:56:16;3.20;;;2.20;;
60610;SDS011;46439;51.164;13.572;2022-08-30T14:58:48;4.10;;;2.40;;
60610;SDS011;46439;51.164;13.572;2022-08-30T15:01:17;4.10;;;2.50;;
60610;SDS011;46439;51.164;13.572;2022-08-30T15:03:48;3.20;;;2.20;;
60610;SDS011;46439;51.164;13.572;2022-08-30T15:06:16;3.60;;;2.10;;
60610;SDS011;46439;51.164;13.572;2022-08-30T15:08:44;3.90;;;2.40;;
60610;SDS011;46439;51.164;13.572;2022-08-30T15:11:15;4.00;;;2.30;;
60610;SDS011;46439;51.164;13.572;2022-08-30T15:13:45;5.70;;;2.10;;
60610;SDS011;46439;51.164;13.572;2022-08-30T15:16:15;3.20;;;2.50;;
60610;SDS011;46439;51.164;13.572;2022-08-30T15:18:44;3.60;;;2.30;;
60610;SDS011;46439;51.164;13.572;2022-08-30T15:21:13;2.60;;;2.10;;
60610;SDS011;46439;51.164;13.572;2022-08-30T15:23:49;2.70;;;2.30;;
60610;SDS011;46439;51.164;13.572;2022-08-30T15:26:18;3.10;;;2.20;;
60610;SDS011;46439;51.164;13.572;2022-08-30T15:28:46;3.40;;;2.40;;
60610;SDS011;46439;51.164;13.572;2022-08-30T15:31:15;3.50;;;2.10;;
60610;SDS011;46439;51.164;13.572;2022-08-30T15:33:46;3.70;;;2.40;;
60610;SDS011;46439;51.164;13.572;2022-08-30T15:36:15;4.50;;;2.30;;
60610;SDS011;46439;51.164;13.572;2022-08-30T15:38:43;3.50;;;2.20;;
60610;SDS011;46439;51.164;13.572;2022-08-30T15:41:12;3.50;;;2.20;;